sensor_id;sensor_type;location;lat;lon;timestamp;P1;durP1;ratioP1;P2;durP2;ratioP2
76157;SDS011;64907;51.574;6.502;2023-07-13T00:00:45;4.10;;;2.67;;
76157;SDS011;64907;51.574;6.502;2023-07-13T00:03:11;4.83;;;2.40;;
76157;SDS011;64907;51.574;6.502;2023-07-13T00:05:38;9.57;;;2.35;;
76157;SDS011;64907;51.574;6.502;2023-07-13T00:08:03;5.90;;;2.20;;
76157;SDS011;64907;51.574;6.502;2023-07-13T00:10:28;5.22;;;2.00;;
76157;SDS011;64907;51.574;6.502;2023-07-13T00:12:53;6.20;;;2.20;;
76157;SDS011;64907;51.574;6.502;2023-07-13T00:15:22;7.43;;;2.20;;
76157;SDS011;64907;51.574;6.502;2023-07-13T00:17:54;4.60;;;2.20;;
76157;SDS011;64907;51.574;6.502;2023-07-13T00:20:20;8.15;;;2.13;;
76157;SDS011;64907;51.574;6.502;2023-07-13T00:22:50;5.28;;;2.47;;
76157;SDS011;64907;51.574;6.502;2023-07-13T00:25:15;18.90;;;2.40;;
76157;SDS011;64907;51.574;6.502;2023-07-13T00:27:41;5.22;;;2.00;;
76157;SDS011;64907;51.574;6.502;2023-07-13T00:30:07;8.93;;;2.47;;
76157;SDS011;64907;51.574;6.502;2023-07-13T00:32:33;5.32;;;2.33;;
76157;SDS011;64907;51.574;6.502;2023-07-13T00:35:00;4.75;;;2.53;;
76157;SDS011;64907;51.574;6.502;2023-07-13T00:37:25;6.57;;;2.00;;
76157;SDS011;64907;51.574;6.502;2023-07-13T00:39:50;6.53;;;2.93;;
76157;SDS011;64907;51.574;6.502;2023-07-13T00:42:15;8.23;;;2.83;;
76157;SDS011;64907;51.574;6.502;2023-07-13T00:44:41;6.13;;;2.67;;
76157;SDS011;64907;51.574;6.502;2023-07-13T00:47:06;6.10;;;2.07;;
76157;SDS011;64907;51.574;6.502;2023-07-13T00:49:32;4.57;;;2.30;;
76157;SDS011;64907;51.574;6.502;2023-07-13T00:52:00;6.18;;;2.25;;
76157;SDS011;64907;51.574;6.502;2023-07-13T00:54:30;4.05;;;2.20;;
76157;SDS011;64907;51.574;6.502;2023-07-13T00:56:58;5.07;;;2.13;;
76157;SDS011;64907;51.574;6.502;2023-07-13T00:59:24;3.60;;;2.20;;
76157;SDS011;64907;51.574;6.502;2023-07-13T01:01:50;6.63;;;2.72;;
76157;SDS011;64907;51.574;6.502;2023-07-13T01:04:15;5.28;;;2.15;;
76157;SDS011;64907;51.574;6.502;2023-07-13T01:06:40;4.00;;;2.08;;
76157;SDS011;64907;51.574;6.502;2023-07-13T01:09:08;5.10;;;2.30;;
76157;SDS011;64907;51.574;6.502;2023-07-13T01:11:35;4.75;;;1.98;;
76157;SDS011;64907;51.574;6.502;2023-07-13T01:14:01;2.40;;;2.20;;
76157;SDS011;64907;51.574;6.502;2023-07-13T01:16:28;4.32;;;2.03;;
76157;SDS011;64907;51.574;6.502;2023-07-13T01:18:54;7.47;;;2.60;;
76157;SDS011;64907;51.574;6.502;2023-07-13T01:21:22;7.40;;;2.25;;
76157;SDS011;64907;51.574;6.502;2023-07-13T01:23:48;5.00;;;2.03;;
76157;SDS011;64907;51.574;6.502;2023-07-13T01:26:13;6.00;;;2.80;;
76157;SDS011;64907;51.574;6.502;2023-07-13T01:28:38;3.60;;;2.03;;
76157;SDS011;64907;51.574;6.502;2023-07-13T01:31:03;4.67;;;2.07;;
76157;SDS011;64907;51.574;6.502;2023-07-13T01:33:29;2.83;;;2.20;;
76157;SDS011;64907;51.574;6.502;2023-07-13T01:35:54;8.07;;;2.20;;
76157;SDS011;64907;51.574;6.502;2023-07-13T01:38:22;6.30;;;3.00;;
76157;SDS011;64907;51.574;6.502;2023-07-13T01:40:48;4.45;;;2.13;;
76157;SDS011;64907;51.574;6.502;2023-07-13T01:43:13;5.07;;;2.50;;
76157;SDS011;64907;51.574;6.502;2023-07-13T01:45:39;9.38;;;2.85;;
76157;SDS011;64907;51.574;6.502;2023-07-13T01:48:04;4.30;;;2.25;;
76157;SDS011;64907;51.574;6.502;2023-07-13T01:50:31;4.55;;;2.30;;
76157;SDS011;64907;51.574;6.502;2023-07-13T01:52:57;6.97;;;2.55;;
76157;SDS011;64907;51.574;6.502;2023-07-13T01:55:22;4.05;;;2.30;;
76157;SDS011;64907;51.574;6.502;2023-07-13T01:57:47;6.35;;;2.40;;
76157;SDS011;64907;51.574;6.502;2023-07-13T02:00:13;7.47;;;2.78;;
76157;SDS011;64907;51.574;6.502;2023-07-13T02:02:38;7.93;;;2.58;;
76157;SDS011;64907;51.574;6.502;2023-07-13T02:05:04;6.68;;;2.60;;
76157;SDS011;64907;51.574;6.502;2023-07-13T02:07:29;5.35;;;2.75;;
76157;SDS011;64907;51.574;6.502;2023-07-13T02:09:54;5.53;;;2.13;;
76157;SDS011;64907;51.574;6.502;2023-07-13T02:12:19;5.70;;;2.70;;
76157;SDS011;64907;51.574;6.502;2023-07-13T02:14:45;4.07;;;1.95;;
76157;SDS011;64907;51.574;6.502;2023-07-13T02:17:10;2.47;;;2.33;;
76157;SDS011;64907;51.574;6.502;2023-07-13T02:19:35;8.05;;;3.15;;
76157;SDS011;64907;51.574;6.502;2023-07-13T02:22:01;8.85;;;2.50;;
76157;SDS011;64907;51.574;6.502;2023-07-13T02:24:26;4.85;;;2.38;;
76157;SDS011;64907;51.574;6.502;2023-07-13T02:26:52;6.40;;;2.30;;
76157;SDS011;64907;51.574;6.502;2023-07-13T02:29:17;5.30;;;2.30;;
76157;SDS011;64907;51.574;6.502;2023-07-13T02:31:42;7.78;;;2.72;;
76157;SDS011;64907;51.574;6.502;2023-07-13T02:34:08;7.20;;;2.15;;
76157;SDS011;64907;51.574;6.502;2023-07-13T02:36:33;4.28;;;2.58;;
76157;SDS011;64907;51.574;6.502;2023-07-13T02:39:02;4.30;;;2.40;;
76157;SDS011;64907;51.574;6.502;2023-07-13T02:41:28;6.63;;;2.95;;
76157;SDS011;64907;51.574;6.502;2023-07-13T02:43:53;6.90;;;2.50;;
76157;SDS011;64907;51.574;6.502;2023-07-13T02:46:18;6.55;;;2.53;;
76157;SDS011;64907;51.574;6.502;2023-07-13T02:48:44;8.43;;;2.85;;
76157;SDS011;64907;51.574;6.502;2023-07-13T02:51:10;3.30;;;2.20;;
76157;SDS011;64907;51.574;6.502;2023-07-13T02:53:35;3.75;;;2.50;;
76157;SDS011;64907;51.574;6.502;2023-07-13T02:56:01;5.20;;;2.45;;
76157;SDS011;64907;51.574;6.502;2023-07-13T02:58:26;6.93;;;2.88;;
76157;SDS011;64907;51.574;6.502;2023-07-13T03:00:51;4.30;;;2.63;;
76157;SDS011;64907;51.574;6.502;2023-07-13T03:03:17;6.55;;;2.53;;
76157;SDS011;64907;51.574;6.502;2023-07-13T03:05:42;5.82;;;2.88;;
76157;SDS011;64907;51.574;6.502;2023-07-13T03:08:11;5.82;;;2.58;;
76157;SDS011;64907;51.574;6.502;2023-07-13T03:10:37;7.70;;;2.75;;
76157;SDS011;64907;51.574;6.502;2023-07-13T03:13:02;7.32;;;2.42;;
76157;SDS011;64907;51.574;6.502;2023-07-13T03:15:27;10.38;;;3.22;;
76157;SDS011;64907;51.574;6.502;2023-07-13T03:17:52;4.82;;;2.63;;
76157;SDS011;64907;51.574;6.502;2023-07-13T03:20:18;6.50;;;2.47;;
76157;SDS011;64907;51.574;6.502;2023-07-13T03:22:43;6.25;;;2.85;;
76157;SDS011;64907;51.574;6.502;2023-07-13T03:25:08;3.40;;;2.72;;
76157;SDS011;64907;51.574;6.502;2023-07-13T03:27:34;9.70;;;2.63;;
76157;SDS011;64907;51.574;6.502;2023-07-13T03:29:59;7.25;;;2.90;;
76157;SDS011;64907;51.574;6.502;2023-07-13T03:32:24;5.63;;;2.17;;
76157;SDS011;64907;51.574;6.502;2023-07-13T03:34:49;4.38;;;2.42;;
76157;SDS011;64907;51.574;6.502;2023-07-13T03:37:15;4.10;;;2.70;;
76157;SDS011;64907;51.574;6.502;2023-07-13T03:39:40;4.67;;;2.73;;
76157;SDS011;64907;51.574;6.502;2023-07-13T03:42:08;3.33;;;3.00;;
76157;SDS011;64907;51.574;6.502;2023-07-13T03:44:34;5.30;;;2.92;;
76157;SDS011;64907;51.574;6.502;2023-07-13T03:47:00;5.38;;;2.40;;
76157;SDS011;64907;51.574;6.502;2023-07-13T03:49:25;7.45;;;3.15;;
76157;SDS011;64907;51.574;6.502;2023-07-13T03:51:50;7.07;;;3.10;;
76157;SDS011;64907;51.574;6.502;2023-07-13T03:54:15;6.90;;;2.60;;
76157;SDS011;64907;51.574;6.502;2023-07-13T03:56:40;9.37;;;4.23;;
76157;SDS011;64907;51.574;6.502;2023-07-13T03:59:06;4.77;;;2.57;;
76157;SDS011;64907;51.574;6.502;2023-07-13T04:01:31;7.53;;;2.77;;
76157;SDS011;64907;51.574;6.502;2023-07-13T04:03:57;5.05;;;3.00;;
76157;SDS011;64907;51.574;6.502;2023-07-13T04:06:25;8.68;;;2.72;;
76157;SDS011;64907;51.574;6.502;2023-07-13T04:08:52;5.07;;;2.30;;
76157;SDS011;64907;51.574;6.502;2023-07-13T04:11:18;7.05;;;3.30;;
76157;SDS011;64907;51.574;6.502;2023-07-13T04:13:43;4.35;;;2.53;;
76157;SDS011;64907;51.574;6.502;2023-07-13T04:16:09;5.95;;;2.92;;
76157;SDS011;64907;51.574;6.502;2023-07-13T04:18:34;5.75;;;2.53;;
76157;SDS011;64907;51.574;6.502;2023-07-13T04:21:00;8.67;;;2.43;;
76157;SDS011;64907;51.574;6.502;2023-07-13T04:23:25;6.17;;;2.87;;
76157;SDS011;64907;51.574;6.502;2023-07-13T04:25:51;10.23;;;2.73;;
76157;SDS011;64907;51.574;6.502;2023-07-13T04:28:21;9.25;;;2.53;;
76157;SDS011;64907;51.574;6.502;2023-07-13T04:30:46;9.27;;;2.92;;
76157;SDS011;64907;51.574;6.502;2023-07-13T04:33:11;7.50;;;2.95;;
76157;SDS011;64907;51.574;6.502;2023-07-13T04:35:37;5.33;;;2.60;;
76157;SDS011;64907;51.574;6.502;2023-07-13T04:38:02;5.97;;;2.90;;
76157;SDS011;64907;51.574;6.502;2023-07-13T04:40:28;11.50;;;3.30;;
76157;SDS011;64907;51.574;6.502;2023-07-13T04:42:53;4.90;;;2.28;;
76157;SDS011;64907;51.574;6.502;2023-07-13T04:45:18;8.77;;;3.37;;
76157;SDS011;64907;51.574;6.502;2023-07-13T04:47:43;8.48;;;3.33;;
76157;SDS011;64907;51.574;6.502;2023-07-13T04:50:09;8.68;;;3.80;;
76157;SDS011;64907;51.574;6.502;2023-07-13T04:52:36;5.78;;;2.30;;
76157;SDS011;64907;51.574;6.502;2023-07-13T04:55:01;5.35;;;2.33;;
76157;SDS011;64907;51.574;6.502;2023-07-13T04:57:27;5.82;;;2.55;;
76157;SDS011;64907;51.574;6.502;2023-07-13T04:59:53;6.07;;;2.25;;
76157;SDS011;64907;51.574;6.502;2023-07-13T05:02:18;4.75;;;2.80;;
76157;SDS011;64907;51.574;6.502;2023-07-13T05:04:46;5.15;;;1.90;;
76157;SDS011;64907;51.574;6.502;2023-07-13T05:07:11;8.60;;;3.22;;
76157;SDS011;64907;51.574;6.502;2023-07-13T05:09:36;7.53;;;2.67;;
76157;SDS011;64907;51.574;6.502;2023-07-13T05:12:02;7.53;;;3.03;;
76157;SDS011;64907;51.574;6.502;2023-07-13T05:14:27;7.60;;;3.20;;
76157;SDS011;64907;51.574;6.502;2023-07-13T05:16:52;5.27;;;3.10;;
76157;SDS011;64907;51.574;6.502;2023-07-13T05:19:18;7.93;;;3.17;;
76157;SDS011;64907;51.574;6.502;2023-07-13T05:21:43;5.93;;;2.80;;
76157;SDS011;64907;51.574;6.502;2023-07-13T05:24:08;11.30;;;3.65;;
76157;SDS011;64907;51.574;6.502;2023-07-13T05:26:33;7.57;;;3.33;;
76157;SDS011;64907;51.574;6.502;2023-07-13T05:28:58;7.60;;;2.90;;
76157;SDS011;64907;51.574;6.502;2023-07-13T05:31:25;10.63;;;3.88;;
76157;SDS011;64907;51.574;6.502;2023-07-13T05:33:50;9.13;;;3.90;;
76157;SDS011;64907;51.574;6.502;2023-07-13T05:36:15;13.45;;;4.22;;
76157;SDS011;64907;51.574;6.502;2023-07-13T05:38:41;8.25;;;3.72;;
76157;SDS011;64907;51.574;6.502;2023-07-13T05:41:06;10.05;;;3.92;;
76157;SDS011;64907;51.574;6.502;2023-07-13T05:43:31;8.10;;;3.55;;
76157;SDS011;64907;51.574;6.502;2023-07-13T05:45:57;10.40;;;3.67;;
76157;SDS011;64907;51.574;6.502;2023-07-13T05:48:23;6.07;;;4.10;;
76157;SDS011;64907;51.574;6.502;2023-07-13T05:50:49;7.32;;;3.60;;
76157;SDS011;64907;51.574;6.502;2023-07-13T05:53:14;8.95;;;4.05;;
76157;SDS011;64907;51.574;6.502;2023-07-13T05:55:43;8.63;;;4.60;;
76157;SDS011;64907;51.574;6.502;2023-07-13T05:58:09;8.05;;;4.30;;
76157;SDS011;64907;51.574;6.502;2023-07-13T06:00:34;9.80;;;4.03;;
76157;SDS011;64907;51.574;6.502;2023-07-13T06:02:59;8.87;;;4.40;;
76157;SDS011;64907;51.574;6.502;2023-07-13T06:05:24;9.18;;;4.32;;
76157;SDS011;64907;51.574;6.502;2023-07-13T06:07:49;14.32;;;3.95;;
76157;SDS011;64907;51.574;6.502;2023-07-13T06:10:15;10.27;;;5.53;;
76157;SDS011;64907;51.574;6.502;2023-07-13T06:12:40;14.30;;;4.78;;
76157;SDS011;64907;51.574;6.502;2023-07-13T06:15:05;8.87;;;4.93;;
76157;SDS011;64907;51.574;6.502;2023-07-13T06:17:31;9.65;;;4.53;;
76157;SDS011;64907;51.574;6.502;2023-07-13T06:19:56;13.33;;;5.70;;
76157;SDS011;64907;51.574;6.502;2023-07-13T06:22:21;11.80;;;5.07;;
76157;SDS011;64907;51.574;6.502;2023-07-13T06:24:46;10.43;;;5.53;;
76157;SDS011;64907;51.574;6.502;2023-07-13T06:27:11;13.30;;;5.30;;
76157;SDS011;64907;51.574;6.502;2023-07-13T06:29:36;12.47;;;6.03;;
76157;SDS011;64907;51.574;6.502;2023-07-13T06:32:02;10.80;;;5.03;;
76157;SDS011;64907;51.574;6.502;2023-07-13T06:34:27;15.52;;;6.25;;
76157;SDS011;64907;51.574;6.502;2023-07-13T06:36:52;13.87;;;5.80;;
76157;SDS011;64907;51.574;6.502;2023-07-13T06:39:17;15.70;;;6.68;;
76157;SDS011;64907;51.574;6.502;2023-07-13T06:41:43;18.93;;;6.57;;
76157;SDS011;64907;51.574;6.502;2023-07-13T06:44:09;13.27;;;6.18;;
76157;SDS011;64907;51.574;6.502;2023-07-13T06:46:34;10.77;;;5.50;;
76157;SDS011;64907;51.574;6.502;2023-07-13T06:48:59;9.18;;;6.25;;
76157;SDS011;64907;51.574;6.502;2023-07-13T06:51:25;10.63;;;6.15;;
76157;SDS011;64907;51.574;6.502;2023-07-13T06:53:52;10.40;;;5.93;;
76157;SDS011;64907;51.574;6.502;2023-07-13T06:56:17;11.18;;;6.10;;
76157;SDS011;64907;51.574;6.502;2023-07-13T06:58:42;12.27;;;6.20;;
76157;SDS011;64907;51.574;6.502;2023-07-13T07:01:08;13.38;;;6.07;;
76157;SDS011;64907;51.574;6.502;2023-07-13T07:03:33;12.57;;;5.90;;
76157;SDS011;64907;51.574;6.502;2023-07-13T07:06:41;12.33;;;6.63;;
76157;SDS011;64907;51.574;6.502;2023-07-13T07:08:48;10.55;;;5.35;;
76157;SDS011;64907;51.574;6.502;2023-07-13T07:11:16;10.95;;;5.30;;
76157;SDS011;64907;51.574;6.502;2023-07-13T07:13:42;10.05;;;4.82;;
76157;SDS011;64907;51.574;6.502;2023-07-13T07:16:07;10.83;;;5.17;;
76157;SDS011;64907;51.574;6.502;2023-07-13T07:18:33;13.05;;;5.53;;
76157;SDS011;64907;51.574;6.502;2023-07-13T07:20:58;12.43;;;5.07;;
76157;SDS011;64907;51.574;6.502;2023-07-13T07:23:23;15.60;;;6.73;;
76157;SDS011;64907;51.574;6.502;2023-07-13T07:25:49;12.70;;;5.85;;
76157;SDS011;64907;51.574;6.502;2023-07-13T07:28:15;9.82;;;5.35;;
76157;SDS011;64907;51.574;6.502;2023-07-13T07:30:43;12.43;;;5.78;;
76157;SDS011;64907;51.574;6.502;2023-07-13T07:33:08;10.05;;;5.60;;
76157;SDS011;64907;51.574;6.502;2023-07-13T07:35:33;10.57;;;5.47;;
76157;SDS011;64907;51.574;6.502;2023-07-13T07:37:59;11.37;;;5.50;;
76157;SDS011;64907;51.574;6.502;2023-07-13T07:40:24;13.73;;;5.45;;
76157;SDS011;64907;51.574;6.502;2023-07-13T07:42:49;9.13;;;5.30;;
76157;SDS011;64907;51.574;6.502;2023-07-13T07:45:14;10.13;;;5.50;;
76157;SDS011;64907;51.574;6.502;2023-07-13T07:47:39;9.57;;;5.22;;
76157;SDS011;64907;51.574;6.502;2023-07-13T07:50:05;10.40;;;5.07;;
76157;SDS011;64907;51.574;6.502;2023-07-13T07:52:30;11.45;;;4.72;;
76157;SDS011;64907;51.574;6.502;2023-07-13T07:54:55;14.80;;;4.90;;
76157;SDS011;64907;51.574;6.502;2023-07-13T07:57:21;9.25;;;4.95;;
76157;SDS011;64907;51.574;6.502;2023-07-13T07:59:46;12.30;;;5.10;;
76157;SDS011;64907;51.574;6.502;2023-07-13T08:02:11;10.80;;;5.05;;
76157;SDS011;64907;51.574;6.502;2023-07-13T08:04:36;7.88;;;4.25;;
76157;SDS011;64907;51.574;6.502;2023-07-13T08:07:01;7.63;;;4.27;;
76157;SDS011;64907;51.574;6.502;2023-07-13T08:09:28;8.82;;;4.10;;
76157;SDS011;64907;51.574;6.502;2023-07-13T08:11:53;8.35;;;5.15;;
76157;SDS011;64907;51.574;6.502;2023-07-13T08:14:19;8.27;;;4.32;;
76157;SDS011;64907;51.574;6.502;2023-07-13T08:16:44;8.73;;;4.43;;
76157;SDS011;64907;51.574;6.502;2023-07-13T08:19:10;8.25;;;3.88;;
76157;SDS011;64907;51.574;6.502;2023-07-13T08:21:36;7.75;;;3.97;;
76157;SDS011;64907;51.574;6.502;2023-07-13T08:24:02;9.10;;;4.18;;
76157;SDS011;64907;51.574;6.502;2023-07-13T08:26:27;9.43;;;4.38;;
76157;SDS011;64907;51.574;6.502;2023-07-13T08:28:52;6.47;;;4.23;;
76157;SDS011;64907;51.574;6.502;2023-07-13T08:31:17;8.10;;;4.37;;
76157;SDS011;64907;51.574;6.502;2023-07-13T08:33:42;8.43;;;4.30;;
76157;SDS011;64907;51.574;6.502;2023-07-13T08:36:08;6.87;;;4.40;;
76157;SDS011;64907;51.574;6.502;2023-07-13T08:38:33;9.15;;;4.47;;
76157;SDS011;64907;51.574;6.502;2023-07-13T08:40:58;7.30;;;3.47;;
76157;SDS011;64907;51.574;6.502;2023-07-13T08:43:28;6.43;;;4.43;;
76157;SDS011;64907;51.574;6.502;2023-07-13T08:48:51;11.63;;;4.45;;
76157;SDS011;64907;51.574;6.502;2023-07-13T08:51:29;6.15;;;4.10;;
76157;SDS011;64907;51.574;6.502;2023-07-13T08:54:01;9.30;;;4.15;;
76157;SDS011;64907;51.574;6.502;2023-07-13T08:56:28;5.35;;;3.67;;
76157;SDS011;64907;51.574;6.502;2023-07-13T08:58:58;8.38;;;4.32;;
76157;SDS011;64907;51.574;6.502;2023-07-13T09:01:31;9.20;;;4.63;;
76157;SDS011;64907;51.574;6.502;2023-07-13T09:06:26;9.20;;;4.22;;
76157;SDS011;64907;51.574;6.502;2023-07-13T09:08:58;9.93;;;4.82;;
76157;SDS011;64907;51.574;6.502;2023-07-13T09:16:52;11.98;;;5.60;;
76157;SDS011;64907;51.574;6.502;2023-07-13T09:19:27;10.43;;;5.10;;
76157;SDS011;64907;51.574;6.502;2023-07-13T09:21:53;11.00;;;5.60;;
76157;SDS011;64907;51.574;6.502;2023-07-13T09:24:27;10.27;;;4.93;;
76157;SDS011;64907;51.574;6.502;2023-07-13T09:26:53;11.88;;;4.97;;
76157;SDS011;64907;51.574;6.502;2023-07-13T09:29:26;10.43;;;4.70;;
76157;SDS011;64907;51.574;6.502;2023-07-13T09:31:53;11.25;;;4.90;;
76157;SDS011;64907;51.574;6.502;2023-07-13T09:34:19;11.63;;;4.72;;
76157;SDS011;64907;51.574;6.502;2023-07-13T09:36:44;10.63;;;4.50;;
76157;SDS011;64907;51.574;6.502;2023-07-13T09:39:18;9.77;;;4.80;;
76157;SDS011;64907;51.574;6.502;2023-07-13T09:42:05;12.98;;;6.07;;
76157;SDS011;64907;51.574;6.502;2023-07-13T09:44:36;9.88;;;4.72;;
76157;SDS011;64907;51.574;6.502;2023-07-13T09:47:01;10.32;;;5.18;;
76157;SDS011;64907;51.574;6.502;2023-07-13T09:49:28;8.07;;;5.38;;
76157;SDS011;64907;51.574;6.502;2023-07-13T09:51:57;9.27;;;4.70;;
76157;SDS011;64907;51.574;6.502;2023-07-13T09:54:24;10.18;;;5.07;;
76157;SDS011;64907;51.574;6.502;2023-07-13T09:56:54;10.18;;;5.15;;
76157;SDS011;64907;51.574;6.502;2023-07-13T09:59:20;11.73;;;4.63;;
76157;SDS011;64907;51.574;6.502;2023-07-13T10:01:46;7.25;;;4.28;;
76157;SDS011;64907;51.574;6.502;2023-07-13T10:04:13;6.05;;;3.67;;
76157;SDS011;64907;51.574;6.502;2023-07-13T10:06:39;9.48;;;4.20;;
76157;SDS011;64907;51.574;6.502;2023-07-13T10:09:07;8.88;;;3.97;;
76157;SDS011;64907;51.574;6.502;2023-07-13T10:11:34;6.18;;;3.63;;
76157;SDS011;64907;51.574;6.502;2023-07-13T10:14:09;8.90;;;3.95;;
76157;SDS011;64907;51.574;6.502;2023-07-13T10:16:35;8.27;;;3.80;;
76157;SDS011;64907;51.574;6.502;2023-07-13T10:19:21;7.22;;;4.00;;
76157;SDS011;64907;51.574;6.502;2023-07-13T10:21:52;9.35;;;3.95;;
76157;SDS011;64907;51.574;6.502;2023-07-13T10:26:46;9.18;;;4.32;;
76157;SDS011;64907;51.574;6.502;2023-07-13T10:29:12;9.88;;;3.70;;
76157;SDS011;64907;51.574;6.502;2023-07-13T10:31:39;5.57;;;3.58;;
76157;SDS011;64907;51.574;6.502;2023-07-13T10:34:09;5.55;;;3.10;;
76157;SDS011;64907;51.574;6.502;2023-07-13T10:36:38;7.45;;;2.97;;
76157;SDS011;64907;51.574;6.502;2023-07-13T10:39:05;6.15;;;3.17;;
76157;SDS011;64907;51.574;6.502;2023-07-13T10:41:32;10.73;;;3.28;;
76157;SDS011;64907;51.574;6.502;2023-07-13T10:43:59;7.70;;;2.90;;
76157;SDS011;64907;51.574;6.502;2023-07-13T10:46:25;3.20;;;2.70;;
76157;SDS011;64907;51.574;6.502;2023-07-13T10:48:56;5.13;;;2.90;;
76157;SDS011;64907;51.574;6.502;2023-07-13T10:51:22;6.43;;;2.63;;
76157;SDS011;64907;51.574;6.502;2023-07-13T10:53:48;7.70;;;3.70;;
76157;SDS011;64907;51.574;6.502;2023-07-13T10:56:33;3.08;;;2.38;;
76157;SDS011;64907;51.574;6.502;2023-07-13T10:59:02;6.13;;;2.67;;
76157;SDS011;64907;51.574;6.502;2023-07-13T11:04:26;4.47;;;3.05;;
76157;SDS011;64907;51.574;6.502;2023-07-13T11:07:09;4.53;;;2.30;;
76157;SDS011;64907;51.574;6.502;2023-07-13T11:09:38;5.50;;;2.85;;
76157;SDS011;64907;51.574;6.502;2023-07-13T11:15:04;5.93;;;2.22;;
76157;SDS011;64907;51.574;6.502;2023-07-13T11:19:54;5.07;;;2.83;;
76157;SDS011;64907;51.574;6.502;2023-07-13T11:22:41;3.15;;;2.65;;
76157;SDS011;64907;51.574;6.502;2023-07-13T11:27:45;7.60;;;2.50;;
76157;SDS011;64907;51.574;6.502;2023-07-13T11:33:09;7.32;;;2.90;;
76157;SDS011;64907;51.574;6.502;2023-07-13T11:35:38;3.55;;;2.38;;
76157;SDS011;64907;51.574;6.502;2023-07-13T11:38:12;7.38;;;2.67;;
76157;SDS011;64907;51.574;6.502;2023-07-13T11:40:38;3.95;;;2.55;;
76157;SDS011;64907;51.574;6.502;2023-07-13T11:43:04;5.93;;;2.50;;
76157;SDS011;64907;51.574;6.502;2023-07-13T11:45:32;7.80;;;2.45;;
76157;SDS011;64907;51.574;6.502;2023-07-13T11:47:57;5.18;;;2.33;;
76157;SDS011;64907;51.574;6.502;2023-07-13T11:50:25;4.47;;;2.50;;
76157;SDS011;64907;51.574;6.502;2023-07-13T11:52:50;3.75;;;2.30;;
76157;SDS011;64907;51.574;6.502;2023-07-13T11:55:18;4.93;;;2.63;;
76157;SDS011;64907;51.574;6.502;2023-07-13T11:57:51;5.57;;;2.40;;
76157;SDS011;64907;51.574;6.502;2023-07-13T12:00:18;2.35;;;2.13;;
76157;SDS011;64907;51.574;6.502;2023-07-13T12:02:48;3.40;;;2.08;;
76157;SDS011;64907;51.574;6.502;2023-07-13T12:05:14;2.95;;;2.33;;
76157;SDS011;64907;51.574;6.502;2023-07-13T12:07:43;2.10;;;2.00;;
76157;SDS011;64907;51.574;6.502;2023-07-13T12:12:37;8.40;;;3.05;;
76157;SDS011;64907;51.574;6.502;2023-07-13T12:15:06;6.33;;;2.50;;
76157;SDS011;64907;51.574;6.502;2023-07-13T12:17:31;3.70;;;2.50;;
76157;SDS011;64907;51.574;6.502;2023-07-13T12:19:59;2.38;;;2.17;;
76157;SDS011;64907;51.574;6.502;2023-07-13T12:22:24;7.57;;;2.63;;
76157;SDS011;64907;51.574;6.502;2023-07-13T12:24:50;2.17;;;1.92;;
76157;SDS011;64907;51.574;6.502;2023-07-13T12:27:23;7.63;;;3.08;;
76157;SDS011;64907;51.574;6.502;2023-07-13T12:30:00;7.15;;;3.45;;
76157;SDS011;64907;51.574;6.502;2023-07-13T12:32:26;3.90;;;3.50;;
76157;SDS011;64907;51.574;6.502;2023-07-13T12:34:56;3.53;;;3.20;;
76157;SDS011;64907;51.574;6.502;2023-07-13T12:37:22;3.50;;;3.20;;
76157;SDS011;64907;51.574;6.502;2023-07-13T12:39:48;4.47;;;3.50;;
76157;SDS011;64907;51.574;6.502;2023-07-13T12:44:42;8.05;;;3.45;;
76157;SDS011;64907;51.574;6.502;2023-07-13T12:47:11;4.55;;;4.05;;
76157;SDS011;64907;51.574;6.502;2023-07-13T12:49:41;6.55;;;3.85;;
76157;SDS011;64907;51.574;6.502;2023-07-13T12:52:13;6.07;;;3.95;;
76157;SDS011;64907;51.574;6.502;2023-07-13T12:54:39;4.25;;;3.85;;
76157;SDS011;64907;51.574;6.502;2023-07-13T12:57:05;4.63;;;4.22;;
76157;SDS011;64907;51.574;6.502;2023-07-13T12:59:34;5.70;;;4.13;;
76157;SDS011;64907;51.574;6.502;2023-07-13T13:02:01;8.65;;;3.90;;
76157;SDS011;64907;51.574;6.502;2023-07-13T13:04:27;4.85;;;4.35;;
76157;SDS011;64907;51.574;6.502;2023-07-13T13:07:03;5.93;;;4.25;;
76157;SDS011;64907;51.574;6.502;2023-07-13T13:09:29;4.00;;;3.60;;
76157;SDS011;64907;51.574;6.502;2023-07-13T13:11:54;6.80;;;4.53;;
76157;SDS011;64907;51.574;6.502;2023-07-13T13:14:19;5.93;;;4.50;;
76157;SDS011;64907;51.574;6.502;2023-07-13T13:16:46;5.23;;;4.73;;
76157;SDS011;64907;51.574;6.502;2023-07-13T13:21:43;8.10;;;5.18;;
76157;SDS011;64907;51.574;6.502;2023-07-13T13:24:13;10.27;;;5.72;;
76157;SDS011;64907;51.574;6.502;2023-07-13T13:26:38;5.50;;;5.00;;
76157;SDS011;64907;51.574;6.502;2023-07-13T13:29:14;8.45;;;5.43;;
76157;SDS011;64907;51.574;6.502;2023-07-13T13:31:40;7.50;;;6.20;;
76157;SDS011;64907;51.574;6.502;2023-07-13T13:34:07;7.32;;;6.68;;
76157;SDS011;64907;51.574;6.502;2023-07-13T13:36:33;7.30;;;6.43;;
76157;SDS011;64907;51.574;6.502;2023-07-13T13:38:58;6.90;;;6.40;;
76157;SDS011;64907;51.574;6.502;2023-07-13T13:41:26;7.10;;;6.22;;
76157;SDS011;64907;51.574;6.502;2023-07-13T13:43:51;6.57;;;5.97;;
76157;SDS011;64907;51.574;6.502;2023-07-13T13:46:20;9.53;;;6.97;;
76157;SDS011;64907;51.574;6.502;2023-07-13T13:48:47;11.43;;;8.32;;
76157;SDS011;64907;51.574;6.502;2023-07-13T13:51:16;11.10;;;7.82;;
76157;SDS011;64907;51.574;6.502;2023-07-13T13:53:42;9.18;;;6.43;;
76157;SDS011;64907;51.574;6.502;2023-07-13T13:56:07;6.93;;;6.25;;
76157;SDS011;64907;51.574;6.502;2023-07-13T13:58:32;7.32;;;6.63;;
76157;SDS011;64907;51.574;6.502;2023-07-13T14:00:58;8.38;;;6.20;;
76157;SDS011;64907;51.574;6.502;2023-07-13T14:03:23;8.80;;;6.72;;
76157;SDS011;64907;51.574;6.502;2023-07-13T14:05:49;4.95;;;4.53;;
76157;SDS011;64907;51.574;6.502;2023-07-13T14:08:18;6.75;;;5.05;;
76157;SDS011;64907;51.574;6.502;2023-07-13T14:10:44;5.70;;;3.72;;
76157;SDS011;64907;51.574;6.502;2023-07-13T14:13:15;5.72;;;4.20;;
76157;SDS011;64907;51.574;6.502;2023-07-13T14:15:41;4.43;;;3.88;;
76157;SDS011;64907;51.574;6.502;2023-07-13T14:18:07;3.90;;;3.60;;
76157;SDS011;64907;51.574;6.502;2023-07-13T14:20:33;5.65;;;4.15;;
76157;SDS011;64907;51.574;6.502;2023-07-13T14:22:58;4.03;;;3.70;;
76157;SDS011;64907;51.574;6.502;2023-07-13T14:25:24;8.50;;;3.90;;
76157;SDS011;64907;51.574;6.502;2023-07-13T14:27:52;5.22;;;3.85;;
76157;SDS011;64907;51.574;6.502;2023-07-13T14:30:19;4.25;;;3.88;;
76157;SDS011;64907;51.574;6.502;2023-07-13T14:32:45;5.55;;;4.65;;
76157;SDS011;64907;51.574;6.502;2023-07-13T14:35:13;5.43;;;4.60;;
76157;SDS011;64907;51.574;6.502;2023-07-13T14:37:39;5.53;;;4.47;;
76157;SDS011;64907;51.574;6.502;2023-07-13T14:40:15;8.27;;;5.03;;
76157;SDS011;64907;51.574;6.502;2023-07-13T14:42:41;6.05;;;5.55;;
76157;SDS011;64907;51.574;6.502;2023-07-13T14:45:25;7.10;;;5.63;;
76157;SDS011;64907;51.574;6.502;2023-07-13T14:47:50;7.53;;;5.85;;
76157;SDS011;64907;51.574;6.502;2023-07-13T14:50:17;8.48;;;5.57;;
76157;SDS011;64907;51.574;6.502;2023-07-13T14:52:42;8.27;;;5.28;;
76157;SDS011;64907;51.574;6.502;2023-07-13T14:55:12;12.40;;;6.38;;
76157;SDS011;64907;51.574;6.502;2023-07-13T14:57:37;16.45;;;6.82;;
76157;SDS011;64907;51.574;6.502;2023-07-13T15:00:04;8.73;;;5.35;;
76157;SDS011;64907;51.574;6.502;2023-07-13T15:02:33;4.68;;;4.30;;
76157;SDS011;64907;51.574;6.502;2023-07-13T15:04:58;9.43;;;4.00;;
76157;SDS011;64907;51.574;6.502;2023-07-13T15:07:24;6.35;;;4.13;;
76157;SDS011;64907;51.574;6.502;2023-07-13T15:09:49;5.97;;;4.00;;
76157;SDS011;64907;51.574;6.502;2023-07-13T15:12:16;5.47;;;4.05;;
76157;SDS011;64907;51.574;6.502;2023-07-13T15:14:41;4.30;;;3.80;;
76157;SDS011;64907;51.574;6.502;2023-07-13T15:17:14;4.50;;;4.10;;